Main page
METAR-TAF:

METAR-TAF

Airports :

Pécs-Pogány International Airport

Pécs, Hungary

latitude: 46-06N, longitude: 018-14E, elevation: 201 m

Current weather observation

The report was made 36 minutes ago, at 09:15 UTC
Wind 8 kt from the East/Northeast
Temperature 3°C
Humidity 60%
Pressure 1030 hPa
Visibility 10 km or more
no clouds below 1500 m and no cumulonimbus

METAR: LHPP 170915Z 07008KT CAVOK 03/M04 Q1030

Time: 10:51 (09:51 UTC)

Forecast

The report was made 1 hour and 36 minutes ago, at 08:15 UTC
Forecast valid from 17 at 09 UTC to 17 at 18 UTC
Wind 13 kt from the East/Northeast
Visibility 10 km or more
no clouds below 1500 m and no cumulonimbus
Becoming
from 17 at 15 UTC to 17 at 18 UTC
Wind 7 kt from the Northeast
Visibility 10 km or more
Scattered clouds at a height of 4000 ft
Broken clouds at a height of 9000 ft

TAF: LHPP 170815Z 1709/1718 06013KT CAVOK BECMG 1715/1718 05007KT 9999 SCT040 BKN090

Weather observations and forecasts of more than 4000 airports (METAR and TAF reports).

The available stations are represented by yellow and red dots on the map.

Hover mouse over dot to see the name of the station.

Then click to see weather observations and forecasts.

To change the map : click on the green buttons with a black cross to zoom in, on the green button with a dash to zoom out, or on the green arrows for adjacent maps.


METAR-TAF: